createdAt,value
2023-03-02T00:02:22.740Z,1.00
2023-03-02T00:04:56.969Z,1.35
2023-03-02T00:09:56.036Z,0.75
2023-03-02T00:12:24.552Z,0.90
2023-03-02T00:14:52.337Z,1.02
2023-03-02T00:17:28.091Z,0.90
2023-03-02T00:20:11.702Z,1.00
2023-03-02T00:22:41.250Z,1.07
2023-03-02T00:25:10.267Z,1.00
2023-03-02T00:27:38.145Z,0.93
2023-03-02T00:30:07.797Z,1.05
2023-03-02T00:32:35.915Z,0.90
2023-03-02T00:35:04.402Z,0.73
2023-03-02T00:37:32.372Z,1.23
2023-03-02T00:40:00.008Z,0.73
2023-03-02T00:42:27.755Z,1.10
2023-03-02T00:44:55.523Z,1.20
2023-03-02T00:47:23.274Z,1.05
2023-03-02T00:49:51.038Z,0.70
2023-03-02T00:52:19.109Z,1.02
2023-03-02T00:54:46.782Z,1.00
2023-03-02T00:57:15.360Z,1.00
2023-03-02T00:59:43.017Z,0.90
2023-03-02T01:02:28.005Z,1.00
2023-03-02T01:04:55.977Z,0.60
2023-03-02T01:07:26.358Z,1.20
2023-03-02T01:09:54.184Z,0.80
2023-03-02T01:12:21.942Z,0.95
2023-03-02T01:14:50.979Z,1.17
2023-03-02T01:17:22.242Z,0.85
2023-03-02T01:19:50.020Z,0.82
2023-03-02T01:22:18.630Z,1.10
2023-03-02T01:24:46.472Z,0.85
2023-03-02T01:27:14.772Z,0.75
2023-03-02T01:29:42.609Z,0.80
2023-03-02T01:32:10.448Z,1.20
2023-03-02T01:34:39.054Z,0.85
2023-03-02T01:37:07.316Z,0.90
2023-03-02T01:39:35.058Z,0.82
2023-03-02T01:42:02.939Z,1.13
2023-03-02T01:44:50.386Z,0.70
2023-03-02T01:47:29.265Z,1.00
2023-03-02T01:50:26.469Z,0.93
2023-03-02T01:52:58.114Z,1.45
2023-03-02T01:55:30.017Z,1.23
2023-03-02T01:57:59.794Z,1.08
2023-03-02T02:00:32.131Z,1.15
2023-03-02T02:03:11.320Z,1.25
2023-03-02T02:05:43.081Z,1.00
2023-03-02T02:08:10.870Z,1.17
2023-03-02T02:10:40.629Z,1.52
2023-03-02T02:13:11.990Z,1.05
2023-03-02T02:15:41.695Z,1.00
2023-03-02T02:18:09.718Z,1.42
2023-03-02T02:20:41.772Z,1.40
2023-03-02T02:23:55.430Z,1.08
2023-03-02T02:26:26.228Z,1.30
2023-03-02T02:29:00.490Z,1.27
2023-03-02T02:34:16.404Z,1.45
2023-03-02T02:36:48.687Z,1.45
2023-03-02T02:39:24.224Z,1.48
2023-03-02T02:41:56.110Z,1.45
2023-03-02T02:44:24.469Z,1.55
2023-03-02T02:46:52.264Z,1.60
2023-03-02T02:49:22.942Z,1.63
2023-03-02T02:51:51.312Z,1.88
2023-03-02T02:54:20.147Z,1.55
2023-03-02T02:56:50.371Z,1.98
2023-03-02T02:59:29.242Z,2.03
2023-03-02T03:02:00.188Z,1.98
2023-03-02T03:04:31.300Z,1.83
2023-03-02T03:07:02.783Z,2.70
2023-03-02T03:09:31.882Z,2.30
2023-03-02T03:12:15.537Z,2.20
2023-03-02T03:14:43.806Z,2.10
2023-03-02T03:17:14.040Z,2.65
2023-03-02T03:19:51.783Z,3.70
2023-03-02T03:22:20.065Z,4.15
2023-03-02T03:24:50.193Z,4.25
2023-03-02T03:27:19.592Z,5.28
2023-03-02T03:29:48.519Z,5.57
2023-03-02T03:32:19.045Z,6.40
2023-03-02T03:34:47.150Z,8.00
2023-03-02T03:37:26.026Z,8.57
2023-03-02T03:39:54.170Z,7.57
2023-03-02T03:42:22.459Z,8.25
2023-03-02T03:44:50.582Z,9.02
2023-03-02T03:47:18.424Z,9.18
2023-03-02T03:49:46.231Z,8.98
2023-03-02T03:52:14.340Z,9.43
2023-03-02T03:54:42.309Z,10.52
2023-03-02T03:57:12.234Z,11.73
2023-03-02T03:59:40.690Z,10.48
2023-03-02T04:02:08.596Z,11.35
2023-03-02T04:04:40.204Z,12.25
2023-03-02T04:07:13.034Z,12.52
2023-03-02T04:09:41.124Z,13.40
2023-03-02T04:12:12.115Z,13.77
2023-03-02T04:14:43.478Z,13.88
2023-03-02T04:17:12.311Z,13.68
2023-03-02T04:19:43.603Z,14.25
2023-03-02T04:22:11.503Z,15.35
2023-03-02T04:24:39.713Z,15.38
2023-03-02T04:27:07.491Z,16.13
2023-03-02T04:29:37.102Z,15.25
2023-03-02T04:32:08.042Z,16.02
2023-03-02T04:34:38.195Z,16.45
2023-03-02T04:37:06.484Z,17.20
2023-03-02T04:39:34.364Z,14.50
2023-03-02T04:42:02.625Z,16.90
2023-03-02T04:44:30.440Z,18.40
2023-03-02T04:46:58.323Z,16.67
2023-03-02T04:49:26.119Z,16.13
2023-03-02T04:51:54.011Z,16.23
2023-03-02T04:54:26.840Z,15.90
2023-03-02T04:56:55.235Z,14.50
2023-03-02T04:59:27.086Z,16.67
2023-03-02T05:02:00.677Z,16.15
2023-03-02T05:04:29.758Z,16.10
2023-03-02T05:06:58.001Z,17.05
2023-03-02T05:09:31.015Z,15.65
2023-03-02T05:12:00.692Z,17.17
2023-03-02T05:14:29.562Z,16.45
2023-03-02T05:16:58.029Z,16.13
2023-03-02T05:19:25.858Z,16.38
2023-03-02T05:21:53.795Z,16.27
2023-03-02T05:24:21.579Z,15.40
2023-03-02T05:26:49.378Z,16.50
2023-03-02T05:29:17.370Z,17.00
2023-03-02T05:31:46.525Z,16.85
2023-03-02T05:34:16.575Z,15.57
2023-03-02T05:36:45.774Z,16.58
2023-03-02T05:39:13.651Z,14.70
2023-03-02T05:41:42.539Z,15.82
2023-03-02T05:44:12.298Z,15.65
2023-03-02T05:46:40.458Z,15.52
2023-03-02T05:49:08.421Z,14.55
2023-03-02T05:51:36.359Z,15.52
2023-03-02T05:54:04.278Z,15.32
2023-03-02T05:56:32.400Z,16.38
2023-03-02T05:59:00.546Z,16.38
2023-03-02T06:01:28.358Z,14.93
2023-03-02T06:03:56.453Z,16.00
2023-03-02T06:06:24.236Z,15.38
2023-03-02T06:08:52.142Z,15.18
2023-03-02T06:11:20.032Z,16.70
2023-03-02T06:13:47.988Z,16.48
2023-03-02T06:16:15.910Z,15.07
2023-03-02T06:18:43.881Z,16.48
2023-03-02T06:21:11.801Z,15.45
2023-03-02T06:23:39.681Z,16.48
2023-03-02T06:26:10.289Z,14.35
2023-03-02T06:28:51.519Z,15.27
2023-03-02T06:31:21.912Z,15.82
2023-03-02T06:33:50.079Z,15.35
2023-03-02T06:36:18.403Z,14.88
2023-03-02T06:38:46.356Z,16.88
2023-03-02T06:41:14.319Z,14.80
2023-03-02T06:43:42.197Z,16.17
2023-03-02T06:46:10.355Z,16.40
2023-03-02T06:48:38.876Z,14.05
2023-03-02T06:51:08.129Z,15.75
2023-03-02T06:53:36.080Z,14.65
2023-03-02T06:56:04.276Z,14.55
2023-03-02T06:58:32.119Z,15.50
2023-03-02T07:00:59.916Z,15.05
2023-03-02T07:03:27.841Z,14.57
2023-03-02T07:05:55.947Z,14.85
2023-03-02T07:08:24.197Z,15.18
2023-03-02T07:10:52.128Z,14.90
2023-03-02T07:13:20.328Z,14.27
2023-03-02T07:15:48.334Z,14.07
2023-03-02T07:18:16.693Z,13.00
2023-03-02T07:20:44.806Z,15.25
2023-03-02T07:23:12.584Z,13.68
2023-03-02T07:25:40.433Z,15.05
2023-03-02T07:28:08.346Z,13.00
2023-03-02T07:30:36.266Z,13.57
2023-03-02T07:33:04.121Z,14.52
2023-03-02T07:35:32.029Z,13.70
2023-03-02T07:37:59.910Z,13.27
2023-03-02T07:40:27.876Z,11.00
2023-03-02T07:42:55.697Z,10.95
2023-03-02T07:45:25.191Z,11.45
2023-03-02T07:47:53.083Z,11.65
2023-03-02T07:50:20.943Z,10.95
2023-03-02T07:52:48.776Z,9.93
2023-03-02T07:55:16.695Z,10.48
2023-03-02T07:57:44.569Z,9.40
2023-03-02T08:00:13.055Z,9.73
2023-03-02T08:02:42.482Z,11.25
2023-03-02T08:05:12.168Z,10.77
2023-03-02T08:07:41.316Z,10.50
2023-03-02T08:10:10.049Z,12.73
2023-03-02T08:12:37.908Z,11.52
2023-03-02T08:15:06.734Z,11.70
2023-03-02T08:17:34.591Z,12.20
2023-03-02T08:20:02.492Z,11.68
2023-03-02T08:22:30.600Z,11.02
2023-03-02T08:24:58.570Z,11.02
2023-03-02T08:27:26.420Z,11.60
2023-03-02T08:29:54.621Z,12.32
2023-03-02T08:32:22.518Z,11.95
2023-03-02T08:34:51.900Z,10.73
2023-03-02T08:37:20.183Z,11.43
2023-03-02T08:39:48.646Z,10.20
2023-03-02T08:42:16.570Z,9.63
2023-03-02T08:44:44.533Z,10.40
2023-03-02T08:47:12.274Z,10.40
2023-03-02T08:49:40.137Z,10.32
2023-03-02T08:52:08.094Z,8.85
2023-03-02T08:54:36.761Z,9.75
2023-03-02T08:57:04.768Z,8.70
2023-03-02T08:59:32.694Z,9.32
2023-03-02T09:02:00.511Z,9.38
2023-03-02T09:04:28.938Z,9.45
2023-03-02T09:06:57.026Z,8.27
2023-03-02T09:09:24.859Z,8.35
2023-03-02T09:11:52.735Z,7.03
2023-03-02T09:14:20.999Z,7.05
2023-03-02T09:16:49.362Z,6.47
2023-03-02T09:19:17.192Z,4.88
2023-03-02T09:21:45.045Z,5.63
2023-03-02T09:24:13.000Z,5.50
2023-03-02T09:26:41.043Z,5.95
2023-03-02T09:29:09.446Z,4.95
2023-03-02T09:31:38.248Z,5.18
2023-03-02T09:34:06.586Z,5.15
2023-03-02T09:36:34.805Z,4.78
2023-03-02T09:39:08.557Z,4.97
2023-03-02T09:42:01.036Z,5.35
2023-03-02T09:45:05.784Z,4.88
2023-03-02T09:47:53.168Z,4.50
2023-03-02T09:50:32.936Z,4.90
2023-03-02T09:53:06.625Z,4.97
2023-03-02T09:55:36.999Z,4.93
2023-03-02T09:58:16.372Z,4.72
2023-03-02T10:00:45.554Z,4.35
2023-03-02T10:03:24.048Z,4.47
2023-03-02T10:05:56.404Z,4.55
2023-03-02T10:08:31.439Z,5.13
2023-03-02T10:11:27.030Z,4.78
2023-03-02T10:14:13.090Z,4.47
2023-03-02T10:17:32.941Z,4.18
2023-03-02T10:20:05.544Z,4.20
2023-03-02T10:22:39.410Z,3.90
2023-03-02T10:25:29.895Z,4.40
2023-03-02T10:28:06.000Z,4.47
2023-03-02T10:30:37.476Z,4.50
2023-03-02T10:33:17.862Z,4.45
2023-03-02T10:35:48.439Z,3.92
2023-03-02T10:38:22.394Z,4.30
2023-03-02T10:40:59.843Z,4.00
2023-03-02T10:44:07.839Z,3.30
2023-03-02T10:46:44.285Z,3.20
2023-03-02T10:49:47.159Z,2.95
2023-03-02T10:52:17.992Z,2.50
2023-03-02T10:54:47.656Z,1.30
2023-03-02T10:57:38.253Z,0.88
2023-03-02T11:00:23.740Z,1.35
2023-03-02T11:02:57.392Z,1.42
2023-03-02T11:05:37.372Z,1.35
2023-03-02T11:08:21.756Z,1.30
2023-03-02T11:10:59.772Z,1.08
2023-03-02T11:13:31.802Z,0.77
2023-03-02T11:16:05.432Z,1.25
2023-03-02T11:18:42.164Z,0.95
2023-03-02T11:21:15.090Z,1.20
2023-03-02T11:24:04.628Z,1.30
2023-03-02T11:26:52.367Z,0.90
2023-03-02T11:29:29.891Z,0.90
2023-03-02T11:32:16.380Z,0.73
2023-03-02T11:34:52.376Z,1.08
2023-03-02T11:37:29.991Z,1.20
2023-03-02T11:40:17.034Z,1.02
2023-03-02T11:42:48.905Z,1.85
2023-03-02T11:45:22.747Z,1.33
2023-03-02T11:48:03.681Z,1.15
2023-03-02T11:50:46.310Z,1.05
2023-03-02T11:53:18.285Z,1.10
2023-03-02T11:55:49.735Z,0.82
2023-03-02T11:58:23.831Z,0.95
2023-03-02T12:00:53.830Z,1.20
2023-03-02T12:03:38.448Z,0.82
2023-03-02T12:09:25.307Z,1.25
2023-03-02T12:11:59.054Z,0.93
2023-03-02T12:14:29.100Z,0.70
2023-03-02T12:17:31.400Z,0.80
2023-03-02T12:20:08.034Z,1.30
2023-03-02T12:22:37.627Z,1.48
2023-03-02T12:25:20.281Z,0.88
2023-03-02T12:27:50.182Z,1.00
2023-03-02T12:30:26.265Z,1.77
2023-03-02T12:33:20.400Z,0.90
2023-03-02T12:35:52.962Z,1.02
2023-03-02T12:38:37.214Z,0.80
2023-03-02T12:41:22.576Z,1.20
2023-03-02T12:44:04.196Z,1.20
2023-03-02T12:46:38.109Z,0.90
2023-03-02T12:49:17.429Z,1.30
2023-03-02T12:51:52.613Z,1.08
2023-03-02T12:54:27.673Z,1.85
2023-03-02T12:57:16.128Z,1.40
2023-03-02T12:59:44.429Z,0.88
2023-03-02T13:02:22.349Z,1.30
2023-03-02T13:04:59.115Z,1.13
2023-03-02T13:07:41.556Z,1.20
2023-03-02T13:10:22.147Z,1.30
2023-03-02T13:12:50.089Z,1.40
2023-03-02T13:15:18.199Z,1.33
2023-03-02T13:17:54.032Z,1.33
2023-03-02T13:20:24.824Z,1.23
2023-03-02T13:22:53.060Z,1.55
2023-03-02T13:25:28.181Z,1.30
2023-03-02T13:28:00.881Z,1.88
2023-03-02T13:30:32.003Z,1.52
2023-03-02T13:33:17.851Z,1.52
2023-03-02T13:35:47.657Z,1.65
2023-03-02T13:38:21.346Z,1.85
2023-03-02T13:40:52.056Z,1.88
2023-03-02T13:43:39.980Z,1.80
2023-03-02T13:46:27.600Z,1.75
2023-03-02T13:49:10.818Z,2.08
2023-03-02T13:51:47.546Z,1.92
2023-03-02T13:54:25.760Z,2.20
2023-03-02T13:56:54.500Z,1.98
2023-03-02T13:59:22.764Z,2.25
2023-03-02T14:01:50.788Z,2.15
2023-03-02T14:04:23.753Z,2.10
2023-03-02T14:06:53.743Z,2.53
2023-03-02T14:09:21.846Z,1.85
2023-03-02T14:11:53.440Z,2.00
2023-03-02T14:14:24.938Z,2.10
2023-03-02T14:16:52.876Z,2.15
2023-03-02T14:19:21.600Z,2.20
2023-03-02T14:21:49.431Z,2.10
2023-03-02T14:24:17.298Z,2.08
2023-03-02T14:26:47.956Z,2.05
2023-03-02T14:29:29.024Z,2.53
2023-03-02T14:32:06.763Z,2.40
2023-03-02T14:34:37.211Z,3.17
2023-03-02T14:37:18.334Z,1.70
2023-03-02T14:39:48.602Z,1.70
2023-03-02T14:42:19.225Z,1.10
2023-03-02T14:44:49.960Z,1.25
2023-03-02T14:47:19.739Z,1.00
2023-03-02T14:49:49.492Z,1.10
2023-03-02T14:52:26.651Z,1.13
2023-03-02T14:54:59.372Z,1.77
2023-03-02T14:57:29.417Z,1.10
2023-03-02T15:00:00.112Z,1.30
2023-03-02T15:02:28.638Z,1.52
2023-03-02T15:04:57.706Z,1.02
2023-03-02T15:07:27.494Z,1.08
2023-03-02T15:09:57.067Z,0.90
2023-03-02T15:12:25.544Z,1.25
2023-03-02T15:14:53.418Z,1.10
2023-03-02T15:17:21.271Z,1.20
2023-03-02T15:19:49.066Z,1.30
2023-03-02T15:22:17.219Z,1.40
2023-03-02T15:24:45.089Z,1.50
2023-03-02T15:27:13.092Z,1.83
2023-03-02T15:29:45.594Z,1.48
2023-03-02T15:32:14.048Z,1.48
2023-03-02T15:34:42.853Z,2.08
2023-03-02T15:37:11.940Z,2.00
2023-03-02T15:39:40.179Z,1.85
2023-03-02T15:42:08.070Z,1.77
2023-03-02T15:44:35.917Z,2.00
2023-03-02T15:47:04.055Z,2.97
2023-03-02T15:49:32.998Z,2.00
2023-03-02T15:52:00.872Z,2.03
2023-03-02T15:54:29.301Z,1.90
2023-03-02T15:56:57.373Z,1.98
2023-03-02T15:59:27.655Z,1.98
2023-03-02T16:01:59.655Z,2.08
2023-03-02T16:04:28.944Z,2.63
2023-03-02T16:06:57.714Z,4.85
2023-03-02T16:09:28.960Z,6.13
2023-03-02T16:11:57.242Z,6.50
2023-03-02T16:14:25.171Z,6.05
2023-03-02T16:16:53.290Z,5.82
2023-03-02T16:19:21.287Z,5.78
2023-03-02T16:21:49.176Z,5.60
2023-03-02T16:24:17.296Z,5.60
2023-03-02T16:26:45.821Z,6.50
2023-03-02T16:29:14.230Z,6.22
2023-03-02T16:31:45.299Z,6.30
2023-03-02T16:34:14.142Z,5.43
2023-03-02T16:36:42.407Z,5.78
2023-03-02T16:39:11.814Z,6.30
2023-03-02T16:41:41.794Z,6.78
2023-03-02T16:44:11.158Z,5.07
2023-03-02T16:46:40.156Z,6.18
2023-03-02T16:49:08.234Z,5.78
2023-03-02T16:51:36.458Z,6.68
2023-03-02T16:54:04.665Z,6.97
2023-03-02T16:56:32.688Z,7.13
2023-03-02T16:59:00.798Z,6.55
2023-03-02T17:01:29.478Z,6.60
2023-03-02T17:03:57.507Z,6.97
2023-03-02T17:06:25.776Z,6.93
2023-03-02T17:08:53.926Z,7.53
2023-03-02T17:11:21.810Z,6.15
2023-03-02T17:13:49.620Z,6.47
2023-03-02T17:16:18.778Z,7.88
2023-03-02T17:18:47.298Z,7.60
2023-03-02T17:21:17.070Z,10.70
2023-03-02T17:23:48.221Z,7.57
2023-03-02T17:26:17.283Z,10.15
2023-03-02T17:28:45.288Z,8.70
2023-03-02T17:31:13.382Z,9.10
2023-03-02T17:33:41.339Z,8.98
2023-03-02T17:36:12.193Z,9.07
2023-03-02T17:39:03.583Z,8.50
2023-03-02T17:41:51.868Z,9.35
2023-03-02T17:44:41.600Z,8.77
2023-03-02T17:47:34.518Z,8.77
2023-03-02T17:50:27.892Z,8.30
2023-03-02T17:53:21.656Z,8.20
2023-03-02T17:56:01.594Z,9.25
2023-03-02T17:58:42.856Z,8.35
2023-03-02T18:01:16.092Z,9.20
2023-03-02T18:03:45.374Z,9.40
2023-03-02T18:06:14.689Z,8.65
2023-03-02T18:08:42.542Z,9.30
2023-03-02T18:11:11.273Z,8.48
2023-03-02T18:13:40.301Z,11.63
2023-03-02T18:16:08.819Z,12.10
2023-03-02T18:18:36.732Z,11.73
2023-03-02T18:21:05.044Z,11.68
2023-03-02T18:23:33.118Z,13.43
2023-03-02T18:26:01.161Z,12.18
2023-03-02T18:28:29.164Z,11.63
2023-03-02T18:30:57.409Z,10.10
2023-03-02T18:33:26.960Z,10.90
2023-03-02T18:35:54.710Z,10.85
2023-03-02T18:38:22.803Z,11.90
2023-03-02T18:40:50.630Z,11.68
2023-03-02T18:43:18.550Z,10.63
2023-03-02T18:45:46.423Z,11.13
2023-03-02T18:48:14.300Z,12.23
2023-03-02T18:50:42.625Z,18.00
2023-03-02T18:53:12.784Z,14.38
2023-03-02T18:55:41.170Z,12.07
2023-03-02T18:58:20.388Z,10.80
2023-03-02T19:00:48.548Z,9.90
2023-03-02T19:03:17.565Z,9.27
2023-03-02T19:05:46.210Z,10.23
2023-03-02T19:08:14.196Z,10.65
2023-03-02T19:10:42.529Z,10.77
2023-03-02T19:13:11.832Z,8.85
2023-03-02T19:15:40.807Z,10.65
2023-03-02T19:18:09.032Z,10.55
2023-03-02T19:20:37.020Z,11.80
2023-03-02T19:23:04.984Z,10.65
2023-03-02T19:25:32.935Z,12.05
2023-03-02T19:28:00.838Z,10.82
2023-03-02T19:30:28.872Z,9.98
2023-03-02T19:32:56.852Z,11.82
2023-03-02T19:35:26.885Z,13.07
2023-03-02T19:37:55.048Z,12.63
2023-03-02T19:40:25.555Z,10.77
2023-03-02T19:42:54.650Z,11.63
2023-03-02T19:45:25.536Z,10.68
2023-03-02T19:47:55.224Z,11.48
2023-03-02T19:50:25.152Z,11.43
2023-03-02T19:52:54.955Z,12.50
2023-03-02T19:55:24.478Z,14.65
2023-03-02T19:57:59.857Z,12.90
2023-03-02T20:00:30.893Z,18.85
2023-03-02T20:03:00.119Z,18.23
2023-03-02T20:05:28.401Z,21.13
2023-03-02T20:07:56.581Z,17.77
2023-03-02T20:10:30.306Z,17.92
2023-03-02T20:12:59.918Z,14.02
2023-03-02T20:15:32.449Z,13.82
2023-03-02T20:18:02.687Z,14.82
2023-03-02T20:20:31.779Z,14.10
2023-03-02T20:23:04.673Z,13.77
2023-03-02T20:25:34.021Z,13.70
2023-03-02T20:28:05.674Z,14.32
2023-03-02T20:30:40.231Z,15.32
2023-03-02T20:33:09.303Z,14.50
2023-03-02T20:35:41.802Z,13.90
2023-03-02T20:38:18.013Z,12.90
2023-03-02T20:40:46.315Z,13.00
2023-03-02T20:43:14.868Z,14.90
2023-03-02T20:45:43.324Z,13.77
2023-03-02T20:48:11.523Z,14.55
2023-03-02T20:50:39.975Z,14.15
2023-03-02T20:53:08.826Z,13.35
2023-03-02T20:55:36.851Z,13.63
2023-03-02T20:58:05.655Z,13.23
2023-03-02T21:00:35.322Z,14.23
2023-03-02T21:03:06.017Z,14.23
2023-03-02T21:05:36.244Z,13.95
2023-03-02T21:08:04.293Z,13.95
2023-03-02T21:10:37.935Z,15.70
2023-03-02T21:13:08.034Z,18.25
2023-03-02T21:15:36.487Z,22.25
2023-03-02T21:18:04.709Z,18.40
2023-03-02T21:20:36.002Z,15.80
2023-03-02T21:23:04.414Z,14.68
2023-03-02T21:25:32.758Z,14.90
2023-03-02T21:28:00.793Z,14.45
2023-03-02T21:30:31.847Z,13.68
2023-03-02T21:32:59.911Z,12.45
2023-03-02T21:35:28.384Z,13.40
2023-03-02T21:37:58.752Z,13.88
2023-03-02T21:40:31.951Z,15.25
2023-03-02T21:43:00.667Z,14.27
2023-03-02T21:45:29.279Z,13.02
2023-03-02T21:47:57.625Z,12.88
2023-03-02T21:50:28.862Z,14.02
2023-03-02T21:52:59.552Z,12.93
2023-03-02T21:55:29.076Z,14.38
2023-03-02T21:57:57.372Z,12.90
2023-03-02T22:00:30.877Z,13.27
2023-03-02T22:02:59.756Z,13.65
2023-03-02T22:05:27.708Z,12.93
2023-03-02T22:07:56.137Z,12.63
2023-03-02T22:10:30.230Z,13.85
2023-03-02T22:15:32.717Z,13.77
2023-03-02T22:18:00.610Z,14.25
2023-03-02T22:20:29.987Z,13.45
2023-03-02T22:22:58.505Z,12.43
2023-03-02T22:25:26.465Z,12.27
2023-03-02T22:27:54.435Z,13.05
2023-03-02T22:30:23.926Z,11.50
2023-03-02T22:32:51.917Z,10.90
2023-03-02T22:35:26.090Z,11.70
2023-03-02T22:38:05.494Z,12.00
2023-03-02T22:40:35.162Z,10.50
2023-03-02T22:43:11.692Z,11.38
2023-03-02T22:45:41.022Z,12.07
2023-03-02T22:48:18.526Z,11.50
2023-03-02T22:50:48.571Z,12.43
2023-03-02T22:53:31.535Z,11.20
2023-03-02T22:56:13.278Z,12.32
2023-03-02T22:58:48.084Z,11.35
2023-03-02T23:01:28.262Z,10.68
2023-03-02T23:04:24.586Z,11.27
2023-03-02T23:06:57.849Z,12.15
2023-03-02T23:09:32.880Z,11.32
2023-03-02T23:12:15.442Z,10.73
2023-03-02T23:14:57.563Z,10.98
2023-03-02T23:17:51.595Z,11.27
2023-03-02T23:20:19.533Z,12.48
2023-03-02T23:22:50.096Z,11.25
2023-03-02T23:25:18.006Z,11.07
2023-03-02T23:27:45.925Z,10.75
2023-03-02T23:30:17.930Z,11.13
2023-03-02T23:32:45.822Z,10.93
2023-03-02T23:35:13.611Z,11.45
2023-03-02T23:37:41.553Z,11.43
2023-03-02T23:40:09.989Z,12.75
2023-03-02T23:42:38.060Z,12.48
2023-03-02T23:45:06.578Z,11.77
2023-03-02T23:47:34.684Z,11.85
2023-03-02T23:50:02.694Z,12.10
2023-03-02T23:52:30.540Z,12.48
2023-03-02T23:54:59.083Z,11.93
2023-03-02T23:57:27.168Z,11.15
2023-03-02T23:59:55.022Z,12.02
